createdAt,value
2017-11-11T00:00:24.617Z,68.19
2017-11-11T00:02:52.953Z,67.92
2017-11-11T00:05:22.011Z,68.13
2017-11-11T00:07:50.321Z,68.67
2017-11-11T00:10:18.641Z,69.08
2017-11-11T00:12:47.004Z,69.18
2017-11-11T00:15:16.088Z,69.96
2017-11-11T00:17:45.161Z,70.22
2017-11-11T00:20:13.456Z,70.35
2017-11-11T00:22:41.745Z,70.42
2017-11-11T00:25:10.255Z,70.17
2017-11-11T00:27:39.407Z,70.20
2017-11-11T00:30:07.756Z,70.29
2017-11-11T00:32:36.047Z,70.17
2017-11-11T00:35:04.351Z,71.04
2017-11-11T00:37:32.652Z,72.17
2017-11-11T00:40:00.960Z,72.25
2017-11-11T00:42:30.188Z,71.71
2017-11-11T00:44:58.477Z,71.85
2017-11-11T00:47:26.780Z,71.88
2017-11-11T00:49:55.073Z,72.05
2017-11-11T00:52:24.137Z,71.24
2017-11-11T00:54:52.509Z,70.63
2017-11-11T00:57:20.793Z,70.67
2017-11-11T00:59:49.080Z,71.85
2017-11-11T01:02:17.373Z,74.50
2017-11-11T01:04:45.676Z,77.00
2017-11-11T01:07:14.019Z,78.26
2017-11-11T01:09:42.306Z,79.02
2017-11-11T01:12:10.611Z,79.22
2017-11-11T01:14:39.046Z,79.88
2017-11-11T01:17:08.121Z,80.24
2017-11-11T01:19:36.406Z,79.91
2017-11-11T01:22:04.689Z,80.03
2017-11-11T01:24:33.831Z,78.97
2017-11-11T01:27:02.179Z,78.51
2017-11-11T01:29:31.236Z,78.38
2017-11-11T01:31:59.623Z,78.60
2017-11-11T01:34:27.908Z,78.84
2017-11-11T01:36:56.204Z,78.52
2017-11-11T01:39:24.506Z,77.62
2017-11-11T01:41:53.572Z,77.67
2017-11-11T01:44:21.879Z,77.30
2017-11-11T01:46:50.937Z,76.98
2017-11-11T01:49:19.221Z,76.77
2017-11-11T01:51:47.575Z,77.01
2017-11-11T01:54:15.871Z,77.32
2017-11-11T01:56:44.239Z,77.78
2017-11-11T01:59:12.552Z,77.69
2017-11-11T02:01:40.853Z,77.85
2017-11-11T02:04:09.155Z,77.99
2017-11-11T02:06:38.224Z,78.32
2017-11-11T02:09:06.512Z,78.17
2017-11-11T02:11:34.801Z,78.23
2017-11-11T02:14:03.109Z,78.17
2017-11-11T02:16:31.394Z,78.25
2017-11-11T02:18:59.685Z,78.05
2017-11-11T02:21:27.967Z,77.80
2017-11-11T02:23:56.352Z,77.70
2017-11-11T02:26:24.650Z,77.64
2017-11-11T02:28:52.959Z,77.44
2017-11-11T02:31:21.253Z,77.60
2017-11-11T02:33:49.554Z,77.49
2017-11-11T02:36:18.611Z,77.43
2017-11-11T02:38:47.665Z,77.35
2017-11-11T02:41:15.972Z,77.29
2017-11-11T02:43:44.265Z,76.96
2017-11-11T02:46:12.554Z,76.62
2017-11-11T02:48:40.849Z,76.40
2017-11-11T02:51:10.681Z,76.54
2017-11-11T02:53:39.733Z,76.39
2017-11-11T02:56:08.022Z,76.42
2017-11-11T02:58:36.312Z,76.30
2017-11-11T03:01:04.794Z,76.91
2017-11-11T03:03:33.098Z,75.71
2017-11-11T03:06:01.406Z,76.71
2017-11-11T03:08:29.712Z,77.01
2017-11-11T03:10:58.102Z,76.54
2017-11-11T03:13:26.383Z,77.01
2017-11-11T03:15:54.695Z,77.57
2017-11-11T03:18:23.058Z,78.32
2017-11-11T03:20:51.395Z,78.73
2017-11-11T03:23:20.474Z,79.08
2017-11-11T03:25:49.623Z,79.26
2017-11-11T03:28:17.928Z,78.69
2017-11-11T03:30:46.229Z,78.31
2017-11-11T03:33:16.096Z,78.41
2017-11-11T03:35:44.420Z,78.43
2017-11-11T03:38:12.720Z,78.42
2017-11-11T03:40:41.171Z,78.55
2017-11-11T03:43:09.456Z,78.60
2017-11-11T03:45:37.744Z,78.57
2017-11-11T03:48:06.038Z,78.49
2017-11-11T03:50:34.366Z,78.59
2017-11-11T03:53:02.674Z,78.62
2017-11-11T03:55:30.973Z,78.64
2017-11-11T03:57:59.340Z,79.04
2017-11-11T04:00:27.638Z,78.68
2017-11-11T04:02:55.940Z,78.59
2017-11-11T04:05:24.230Z,78.41
2017-11-11T04:07:53.292Z,78.50
2017-11-11T04:10:21.589Z,78.07
2017-11-11T04:12:50.640Z,77.91
2017-11-11T04:15:18.928Z,78.35
2017-11-11T04:17:47.220Z,78.05
2017-11-11T04:20:15.581Z,78.18
2017-11-11T04:22:43.876Z,78.03
2017-11-11T04:25:12.202Z,78.04
2017-11-11T04:27:40.514Z,78.00
2017-11-11T04:30:08.821Z,77.89
2017-11-11T04:32:37.230Z,77.56
2017-11-11T04:35:05.541Z,77.51
2017-11-11T04:37:34.624Z,77.52
2017-11-11T04:40:03.266Z,77.27
2017-11-11T04:42:31.568Z,77.34
2017-11-11T04:44:59.862Z,77.16
2017-11-11T04:47:28.157Z,76.79
2017-11-11T04:49:56.463Z,76.58
2017-11-11T04:52:26.265Z,76.88
2017-11-11T04:54:54.560Z,77.01
2017-11-11T04:57:23.686Z,76.67
2017-11-11T04:59:51.977Z,76.65
2017-11-11T05:02:20.280Z,76.83
2017-11-11T05:04:48.579Z,76.41
2017-11-11T05:07:16.889Z,76.23
2017-11-11T05:09:45.199Z,76.32
2017-11-11T05:12:13.500Z,75.99
2017-11-11T05:14:41.812Z,76.01
2017-11-11T05:17:10.240Z,75.94
2017-11-11T05:19:38.576Z,75.46
2017-11-11T05:22:06.881Z,75.34
2017-11-11T05:24:36.070Z,75.29
2017-11-11T05:27:05.138Z,75.39
2017-11-11T05:29:33.465Z,75.64
2017-11-11T05:32:01.790Z,75.86
2017-11-11T05:34:30.085Z,76.21
2017-11-11T05:36:58.392Z,76.25
2017-11-11T05:39:26.737Z,76.21
2017-11-11T05:41:55.127Z,76.36
2017-11-11T05:44:23.438Z,76.47
2017-11-11T05:46:51.754Z,76.59
2017-11-11T05:49:20.055Z,76.28
2017-11-11T05:51:48.349Z,76.29
2017-11-11T05:54:16.685Z,76.29
2017-11-11T05:56:45.829Z,76.37
2017-11-11T05:59:14.127Z,76.43
2017-11-11T06:01:42.445Z,76.38
2017-11-11T06:04:11.524Z,76.43
2017-11-11T06:06:40.592Z,76.52
2017-11-11T06:09:08.918Z,76.45
2017-11-11T06:11:38.056Z,76.21
2017-11-11T06:14:06.376Z,76.02
2017-11-11T06:16:35.460Z,75.99
2017-11-11T06:19:03.760Z,75.84
2017-11-11T06:21:32.098Z,76.05
2017-11-11T06:24:00.421Z,76.30
2017-11-11T06:26:28.754Z,76.25
2017-11-11T06:28:57.049Z,76.05
2017-11-11T06:31:25.357Z,76.00
2017-11-11T06:33:53.669Z,75.94
2017-11-11T06:36:22.786Z,76.32
2017-11-11T06:38:51.088Z,76.88
2017-11-11T06:41:19.408Z,76.97
2017-11-11T06:43:48.497Z,76.50
2017-11-11T06:46:16.804Z,76.30
2017-11-11T06:48:45.099Z,76.24
2017-11-11T06:51:14.186Z,76.70
2017-11-11T06:53:42.534Z,76.86
2017-11-11T06:56:10.845Z,76.41
2017-11-11T06:58:39.152Z,76.40
2017-11-11T07:01:08.293Z,76.26
2017-11-11T07:03:36.589Z,76.29
2017-11-11T07:06:04.890Z,76.46
2017-11-11T07:08:33.187Z,76.20
2017-11-11T07:11:02.338Z,76.40
2017-11-11T07:13:30.631Z,76.21
2017-11-11T07:15:59.007Z,75.92
2017-11-11T07:18:27.331Z,75.93
2017-11-11T07:20:56.418Z,76.07
2017-11-11T07:23:25.481Z,75.99
2017-11-11T07:25:53.794Z,76.05
2017-11-11T07:28:22.134Z,76.24
2017-11-11T07:30:50.431Z,76.62
2017-11-11T07:33:18.745Z,76.62
2017-11-11T07:35:47.845Z,76.73
2017-11-11T07:38:16.921Z,76.37
2017-11-11T07:40:45.219Z,75.78
2017-11-11T07:43:13.528Z,75.79
2017-11-11T07:45:42.596Z,75.72
2017-11-11T07:48:10.897Z,75.72
2017-11-11T07:50:39.957Z,75.55
2017-11-11T07:53:08.269Z,76.04
2017-11-11T07:55:36.571Z,76.50
2017-11-11T07:58:05.647Z,76.84
2017-11-11T08:00:33.939Z,76.22
2017-11-11T08:03:03.034Z,76.15
2017-11-11T08:05:32.093Z,76.32
2017-11-11T08:08:00.421Z,75.85
2017-11-11T08:10:29.499Z,75.40
2017-11-11T08:12:57.962Z,74.94
2017-11-11T08:15:26.247Z,74.16
2017-11-11T08:17:54.890Z,73.47
2017-11-11T08:20:23.198Z,72.89
2017-11-11T08:22:51.572Z,72.95
2017-11-11T08:25:19.863Z,72.86
2017-11-11T08:27:48.170Z,72.74
2017-11-11T08:30:16.490Z,72.91
2017-11-11T08:32:44.801Z,72.43
2017-11-11T08:35:13.174Z,73.14
2017-11-11T08:37:41.505Z,74.23
2017-11-11T08:40:09.806Z,75.48
2017-11-11T08:42:38.917Z,75.71
2017-11-11T08:45:08.029Z,76.37
2017-11-11T08:47:36.407Z,77.45
2017-11-11T08:50:05.311Z,78.12
2017-11-11T08:52:33.619Z,79.09
2017-11-11T08:55:01.953Z,79.46
2017-11-11T08:57:31.043Z,79.48
2017-11-11T09:00:00.111Z,80.27
2017-11-11T09:02:28.422Z,80.71
2017-11-11T09:04:57.587Z,80.53
2017-11-11T09:07:25.974Z,81.08
2017-11-11T09:09:55.056Z,81.84
2017-11-11T09:12:23.423Z,81.53
2017-11-11T09:14:51.731Z,81.66
2017-11-11T09:17:20.044Z,81.50
2017-11-11T09:19:48.341Z,81.68
2017-11-11T09:22:17.423Z,81.34
2017-11-11T09:24:45.731Z,81.45
2017-11-11T09:27:14.805Z,81.47
2017-11-11T09:29:43.104Z,81.42
2017-11-11T09:32:12.219Z,81.35
2017-11-11T09:34:40.512Z,81.06
2017-11-11T09:37:08.811Z,80.89
2017-11-11T09:39:37.135Z,80.77
2017-11-11T09:42:05.429Z,80.51
2017-11-11T09:44:34.524Z,79.79
2017-11-11T09:47:03.666Z,79.38
2017-11-11T09:49:31.980Z,78.83
2017-11-11T09:52:00.276Z,78.34
2017-11-11T09:54:28.576Z,77.13
2017-11-11T09:56:58.385Z,75.92
2017-11-11T09:59:27.493Z,75.25
2017-11-11T10:01:56.580Z,74.77
2017-11-11T10:04:25.743Z,74.84
2017-11-11T10:06:54.072Z,73.56
2017-11-11T10:09:23.161Z,72.59
2017-11-11T10:11:53.058Z,72.55
2017-11-11T10:14:21.370Z,71.82
2017-11-11T10:16:50.424Z,72.36
2017-11-11T10:19:18.727Z,72.13
2017-11-11T10:21:47.048Z,71.76
2017-11-11T10:24:15.380Z,71.14
2017-11-11T10:26:43.680Z,71.45
2017-11-11T10:29:12.897Z,71.40
2017-11-11T10:31:41.973Z,71.31
2017-11-11T10:34:10.264Z,71.38
2017-11-11T10:36:38.582Z,71.21
2017-11-11T10:39:07.444Z,70.78
2017-11-11T10:41:36.516Z,71.23
2017-11-11T10:44:04.821Z,70.97
2017-11-11T10:46:33.896Z,70.55
2017-11-11T10:49:02.266Z,70.46
2017-11-11T10:51:30.559Z,70.76
2017-11-11T10:53:58.882Z,70.86
2017-11-11T10:56:27.190Z,71.19
2017-11-11T10:58:55.552Z,71.12
2017-11-11T11:01:23.846Z,70.75
2017-11-11T11:03:52.236Z,70.47
2017-11-11T11:06:20.589Z,70.23
2017-11-11T11:08:49.673Z,69.33
2017-11-11T11:11:18.756Z,69.21
2017-11-11T11:13:47.066Z,68.65
2017-11-11T11:16:16.190Z,68.18
2017-11-11T11:18:44.480Z,67.99
2017-11-11T11:21:12.773Z,67.75
2017-11-11T11:26:08.662Z,66.59
2017-11-11T11:28:36.963Z,66.39
2017-11-11T11:31:05.270Z,66.31
2017-11-11T11:33:33.564Z,66.34
2017-11-11T11:36:01.885Z,66.70
2017-11-11T11:38:30.208Z,65.49
2017-11-11T11:40:58.518Z,65.74
2017-11-11T11:43:26.817Z,65.45
2017-11-11T11:45:55.114Z,64.83
2017-11-11T11:48:23.418Z,65.29
2017-11-11T11:50:51.734Z,65.53
2017-11-11T11:53:20.051Z,65.09
2017-11-11T11:55:48.411Z,64.06
2017-11-11T11:58:16.853Z,64.06
2017-11-11T12:00:45.169Z,64.29
2017-11-11T12:03:13.506Z,64.44
2017-11-11T12:05:42.595Z,63.88
2017-11-11T12:08:11.715Z,63.45
2017-11-11T12:10:40.014Z,63.66
2017-11-11T12:13:08.310Z,63.58
2017-11-11T12:15:37.692Z,63.50
2017-11-11T12:18:06.026Z,63.62
2017-11-11T12:20:34.562Z,63.86
2017-11-11T12:23:02.908Z,64.08
2017-11-11T12:25:31.204Z,64.41
2017-11-11T12:28:00.353Z,64.49
2017-11-11T12:30:28.671Z,64.47
2017-11-11T12:32:56.977Z,64.26
2017-11-11T12:35:25.294Z,64.39
2017-11-11T12:37:53.756Z,64.24
2017-11-11T12:40:22.063Z,64.15
2017-11-11T12:42:50.378Z,64.12
2017-11-11T12:45:19.438Z,63.75
2017-11-11T12:47:47.795Z,64.27
2017-11-11T12:50:16.081Z,65.13
2017-11-11T12:52:44.384Z,64.65
2017-11-11T12:55:12.717Z,64.95
2017-11-11T12:57:41.843Z,65.42
2017-11-11T13:00:10.142Z,65.99
2017-11-11T13:02:38.437Z,66.05
2017-11-11T13:05:06.793Z,65.45
2017-11-11T13:07:35.108Z,65.41
2017-11-11T13:10:03.430Z,65.52
2017-11-11T13:12:31.760Z,65.27
2017-11-11T13:15:00.146Z,65.34
2017-11-11T13:17:28.483Z,64.77
2017-11-11T13:19:56.806Z,64.19
2017-11-11T13:22:26.122Z,64.56
2017-11-11T13:24:54.492Z,63.51
2017-11-11T13:27:22.805Z,62.58
2017-11-11T13:29:51.108Z,61.41
2017-11-11T13:32:20.190Z,61.30
2017-11-11T13:34:48.498Z,61.93
2017-11-11T13:37:16.796Z,63.07
2017-11-11T13:39:45.101Z,63.06
2017-11-11T13:42:13.399Z,62.68
2017-11-11T13:44:41.711Z,62.91
2017-11-11T13:47:10.858Z,62.72
2017-11-11T13:49:39.165Z,62.61
2017-11-11T13:52:07.470Z,62.98
2017-11-11T13:54:36.540Z,63.18
2017-11-11T13:57:04.860Z,63.47
2017-11-11T13:59:33.968Z,64.03
2017-11-11T14:02:02.273Z,64.61
2017-11-11T14:04:30.648Z,65.61
2017-11-11T14:06:58.948Z,67.63
2017-11-11T14:09:27.331Z,68.23
2017-11-11T14:11:55.734Z,69.47
2017-11-11T14:14:24.068Z,70.21
2017-11-11T14:16:52.383Z,70.79
2017-11-11T14:19:20.693Z,70.78
2017-11-11T14:21:49.001Z,70.42
2017-11-11T14:24:18.080Z,70.20
2017-11-11T14:26:47.156Z,69.83
2017-11-11T14:29:15.477Z,69.12
2017-11-11T14:31:44.541Z,69.16
2017-11-11T14:34:12.899Z,69.49
2017-11-11T14:36:41.242Z,69.29
2017-11-11T14:39:10.313Z,69.15
2017-11-11T14:41:38.722Z,68.95
2017-11-11T14:44:07.796Z,68.89
2017-11-11T14:46:36.102Z,68.55
2017-11-11T14:49:05.170Z,68.32
2017-11-11T14:51:33.509Z,68.55
2017-11-11T14:54:02.031Z,68.64
2017-11-11T14:56:30.336Z,68.37
2017-11-11T14:58:58.813Z,68.06
2017-11-11T15:01:28.057Z,68.55
2017-11-11T15:03:56.365Z,67.90
2017-11-11T15:06:24.731Z,66.65
2017-11-11T15:08:53.053Z,66.24
2017-11-11T15:11:21.356Z,65.54
2017-11-11T15:13:49.652Z,65.01
2017-11-11T15:16:18.722Z,64.84
2017-11-11T15:18:47.026Z,64.74
2017-11-11T15:21:16.119Z,64.42
2017-11-11T15:23:45.182Z,64.47
2017-11-11T15:26:13.503Z,64.57
2017-11-11T15:28:42.593Z,64.47
2017-11-11T15:31:10.895Z,64.12
2017-11-11T15:33:40.047Z,64.61
2017-11-11T15:36:08.367Z,66.47
2017-11-11T15:38:37.457Z,68.24
2017-11-11T15:41:05.787Z,68.89
2017-11-11T15:43:34.080Z,69.37
2017-11-11T15:46:02.405Z,69.46
2017-11-11T15:48:31.484Z,69.13
2017-11-11T15:50:59.784Z,69.69
2017-11-11T15:53:28.086Z,69.42
2017-11-11T15:55:56.397Z,69.33
2017-11-11T15:58:24.693Z,69.29
2017-11-11T16:00:53.023Z,69.18
2017-11-11T16:03:22.095Z,69.32
2017-11-11T16:05:51.964Z,69.01
2017-11-11T16:08:20.275Z,68.98
2017-11-11T16:10:48.564Z,68.63
2017-11-11T16:13:16.876Z,68.58
2017-11-11T16:15:45.946Z,68.63
2017-11-11T16:18:14.248Z,70.25
2017-11-11T16:20:42.561Z,72.23
2017-11-11T16:23:10.879Z,73.25
2017-11-11T16:25:39.221Z,73.46
2017-11-11T16:28:07.531Z,73.57
2017-11-11T16:30:35.833Z,73.76
2017-11-11T16:33:04.996Z,74.09
2017-11-11T16:35:33.291Z,74.56
2017-11-11T16:38:01.614Z,74.21
2017-11-11T16:40:30.697Z,74.20
2017-11-11T16:42:59.299Z,73.93
2017-11-11T16:45:28.270Z,74.29
2017-11-11T16:47:56.569Z,74.08
2017-11-11T16:50:24.879Z,73.31
2017-11-11T16:52:53.940Z,72.87
2017-11-11T16:55:22.220Z,72.92
2017-11-11T16:57:51.242Z,73.39
2017-11-11T17:00:19.529Z,73.72
2017-11-11T17:02:48.620Z,73.97
2017-11-11T17:05:16.921Z,73.63
2017-11-11T17:07:45.993Z,73.34
2017-11-11T17:10:14.290Z,72.81
2017-11-11T17:12:42.648Z,72.18
2017-11-11T17:15:10.964Z,72.46
2017-11-11T17:17:40.041Z,72.37
2017-11-11T17:20:09.117Z,71.95
2017-11-11T17:22:37.424Z,71.72
2017-11-11T17:25:05.729Z,70.90
2017-11-11T17:27:34.173Z,70.63
2017-11-11T17:30:02.474Z,70.17
2017-11-11T17:32:31.555Z,70.14
2017-11-11T17:34:59.841Z,70.22
2017-11-11T17:37:28.176Z,70.48
2017-11-11T17:39:56.480Z,70.84
2017-11-11T17:42:24.800Z,71.09
2017-11-11T17:44:53.112Z,71.29
2017-11-11T17:47:21.421Z,71.00
2017-11-11T17:49:49.709Z,70.70
2017-11-11T17:52:17.992Z,70.14
2017-11-11T17:54:46.317Z,69.57
2017-11-11T17:57:15.378Z,69.22
2017-11-11T17:59:43.676Z,69.78
2017-11-11T18:02:11.977Z,70.10
2017-11-11T18:04:41.047Z,70.29
2017-11-11T18:07:09.346Z,70.47
2017-11-11T18:09:37.668Z,70.34
2017-11-11T18:12:05.962Z,70.27
2017-11-11T18:14:34.256Z,69.69
2017-11-11T18:17:02.544Z,69.50
2017-11-11T18:19:30.905Z,69.52
2017-11-11T18:21:59.213Z,69.66
2017-11-11T18:24:27.489Z,69.65
2017-11-11T18:26:56.544Z,69.76
2017-11-11T18:29:24.843Z,70.06
2017-11-11T18:31:53.132Z,70.20
2017-11-11T18:34:21.428Z,70.67
2017-11-11T18:36:49.718Z,70.87
2017-11-11T18:39:18.013Z,70.89
2017-11-11T18:41:46.343Z,70.74
2017-11-11T18:44:14.696Z,70.33
2017-11-11T18:46:43.766Z,69.86
2017-11-11T18:49:12.140Z,69.81
2017-11-11T18:51:40.446Z,69.62
2017-11-11T18:54:08.749Z,69.38
2017-11-11T18:56:37.804Z,69.49
2017-11-11T18:59:06.103Z,69.39
2017-11-11T19:01:35.897Z,68.97
2017-11-11T19:04:04.196Z,68.75
2017-11-11T19:06:32.497Z,69.24
2017-11-11T19:09:01.572Z,69.58
2017-11-11T19:11:29.872Z,69.84
2017-11-11T19:13:58.157Z,69.65
2017-11-11T19:16:27.221Z,70.02
2017-11-11T19:18:55.518Z,70.27
2017-11-11T19:21:23.819Z,70.46
2017-11-11T19:23:52.869Z,70.22
2017-11-11T19:26:21.180Z,70.46
2017-11-11T19:28:49.482Z,70.17
2017-11-11T19:31:18.530Z,70.38
2017-11-11T19:33:46.822Z,70.64
2017-11-11T19:36:15.120Z,72.63
2017-11-11T19:38:44.190Z,73.33
2017-11-11T19:41:12.482Z,74.49
2017-11-11T19:43:40.770Z,75.47
2017-11-11T19:46:09.073Z,76.80
2017-11-11T19:48:38.248Z,78.92
2017-11-11T19:51:06.553Z,80.26
2017-11-11T19:53:34.860Z,81.27
2017-11-11T19:56:04.082Z,82.05
2017-11-11T19:58:32.368Z,82.50
2017-11-11T20:01:00.688Z,82.88
2017-11-11T20:03:28.985Z,83.32
2017-11-11T20:05:57.286Z,83.40
2017-11-11T20:08:26.377Z,83.69
2017-11-11T20:10:55.429Z,83.87
2017-11-11T20:13:23.721Z,84.00
2017-11-11T20:15:52.069Z,84.41
2017-11-11T20:18:20.356Z,84.70
2017-11-11T20:20:48.661Z,84.89
2017-11-11T20:23:17.000Z,84.29
2017-11-11T20:25:45.298Z,83.15
2017-11-11T20:28:13.594Z,83.53
2017-11-11T20:30:41.876Z,83.89
2017-11-11T20:33:10.159Z,84.17
2017-11-11T20:35:38.455Z,84.57
2017-11-11T20:38:06.764Z,84.71
2017-11-11T20:40:35.047Z,84.68
2017-11-11T20:43:03.335Z,84.65
2017-11-11T20:45:32.386Z,84.88
2017-11-11T20:48:00.748Z,84.93
2017-11-11T20:50:29.043Z,85.10
2017-11-11T20:52:57.341Z,85.05
2017-11-11T20:55:25.664Z,84.58
2017-11-11T20:57:54.717Z,84.49
2017-11-11T21:00:23.053Z,84.49
2017-11-11T21:02:51.333Z,84.13
2017-11-11T21:05:19.638Z,84.44
2017-11-11T21:07:47.954Z,84.34
2017-11-11T21:10:16.229Z,84.52
2017-11-11T21:12:44.526Z,84.51
2017-11-11T21:15:12.815Z,84.42
2017-11-11T21:17:41.106Z,84.44
2017-11-11T21:20:10.157Z,84.16
2017-11-11T21:22:38.450Z,83.87
2017-11-11T21:25:06.766Z,83.92
2017-11-11T21:27:35.827Z,84.31
2017-11-11T21:30:04.129Z,84.63
2017-11-11T21:32:32.421Z,84.98
2017-11-11T21:35:00.727Z,85.03
2017-11-11T21:37:29.035Z,84.92
2017-11-11T21:39:57.340Z,84.28
2017-11-11T21:42:25.648Z,83.63
2017-11-11T21:44:53.958Z,83.26
2017-11-11T21:47:22.265Z,83.33
2017-11-11T21:49:51.454Z,83.46
2017-11-11T21:52:19.744Z,83.00
2017-11-11T21:54:48.035Z,82.13
2017-11-11T21:57:16.348Z,81.78
2017-11-11T21:59:45.432Z,82.00
2017-11-11T22:02:13.746Z,81.20
2017-11-11T22:04:42.055Z,80.71
2017-11-11T22:07:10.358Z,79.84
2017-11-11T22:09:38.649Z,79.43
2017-11-11T22:12:07.315Z,79.09
2017-11-11T22:14:35.617Z,79.09
2017-11-11T22:17:03.968Z,79.36
2017-11-11T22:19:32.270Z,79.78
2017-11-11T22:22:00.580Z,79.04
2017-11-11T22:24:28.918Z,79.28
2017-11-11T22:26:57.298Z,79.56
2017-11-11T22:29:25.602Z,79.35
2017-11-11T22:31:53.904Z,79.27
2017-11-11T22:34:22.204Z,79.22
2017-11-11T22:36:50.494Z,79.67
2017-11-11T22:39:19.557Z,79.78
2017-11-11T22:41:49.394Z,79.84
2017-11-11T22:44:17.690Z,79.58
2017-11-11T22:46:46.763Z,79.89
2017-11-11T22:49:15.052Z,80.24
2017-11-11T22:51:43.347Z,80.59
2017-11-11T22:54:12.406Z,80.80
2017-11-11T22:56:40.710Z,80.26
2017-11-11T22:59:09.017Z,78.80
2017-11-11T23:01:38.082Z,79.86
2017-11-11T23:04:06.384Z,81.14
2017-11-11T23:06:35.439Z,82.67
2017-11-11T23:09:03.754Z,83.98
2017-11-11T23:11:32.056Z,84.91
2017-11-11T23:14:01.130Z,85.03
2017-11-11T23:16:29.421Z,85.11
2017-11-11T23:18:57.744Z,85.68
2017-11-11T23:21:26.142Z,85.54
2017-11-11T23:23:54.434Z,85.47
2017-11-11T23:26:22.762Z,85.45
2017-11-11T23:28:51.071Z,85.54
2017-11-11T23:31:19.368Z,85.67
2017-11-11T23:33:48.325Z,85.77
2017-11-11T23:36:17.389Z,85.94
2017-11-11T23:38:45.674Z,86.21
2017-11-11T23:41:13.974Z,86.51
2017-11-11T23:43:43.040Z,86.64
2017-11-11T23:46:11.343Z,86.73
2017-11-11T23:48:39.629Z,86.85
2017-11-11T23:51:07.939Z,87.13
2017-11-11T23:53:36.223Z,87.33
2017-11-11T23:56:04.532Z,87.39
2017-11-11T23:58:32.823Z,87.53
